Terminal Aerodrome Forecast
Issued by NWS

Home | Current Version | Previous Version | Text Only | Print | Product List | Glossary On
Versions: 1 2 3 4 5 6 7 8 9 10 11 12 13 14 15 16 17 18 19 20 21 22 23 24 25 26 27 28 29 30 31 32 33 34 35 36 37 38 39 40 41 42 43 44
000
FTUS43 KDLH 190100 AAA
TAFBRD
TAF AMD
KBRD 190102Z 1901/1924 02013KT P6SM -TSRA FEW028 BKN035CB OVC050
     FM190600 VRB03KT P6SM BKN035
     FM191600 33006KT P6SM SCT035=

USA.gov is the U.S. government's official web portal to all federal, state and local government web resources and services.